Orient, NY (11957)

8:41 AM EST on February 10, 2016 (GMT -0500)
Orient | | Change Station
CLOSE
Current Station
Personal Weather Station
Location: Orient, NY
Elevation: 15 ft
Nearby Weather Stations

Elev 15 ft 41.14 °N, 72.29 °W | Updated 12 seconds ago

Light Snow
Light Snow
31.4 °F
Feels Like 31 °F
N
0.0
Wind Variable Wind from North
Gusts 0.0 mph

Today
High -- | Low -- °F
--% Chance of Precip.
Yesterday
High -- | Low -- °F
Precip. -- in
Pressure 29.61 in
Visibility 5.0 miles
Clouds Scattered Clouds 800 ft
Mostly Cloudy 1600 ft
Overcast 2100 ft
Windchill 31 °F
Dew Point 26 °F
Humidity 80%
Rainfall 0.00 in
Snow Depth Not available.
6:50 AM 5:16 PM
Waxing Crescent, 5% visible
METAR KHTO 101315Z AUTO 00000KT 5SM -SN SCT008 BKN016 OVC021 M01/M01 A2961 RMK AO2 T10071014
Pressure 29.61 in
Visibility 5.0 miles
Clouds Scattered Clouds 800 ft
Mostly Cloudy 1600 ft
Overcast 2100 ft
Windchill 31 °F
Dew Point 26 °F
Humidity 80%
Rainfall 0.00 in
Snow Depth Not available.
6:50 AM 5:16 PM
Waxing Crescent, 5% visible
METAR KHTO 101315Z AUTO 00000KT 5SM -SN SCT008 BKN016 OVC021 M01/M01 A2961 RMK AO2 T10071014

10-Day Weather Forecast

Almanac

Astronomy

Feb. 10, 2016 Rise Set
Actual Time
Civil Twilight
Nautical Twilight
Astronomical Twilight
Moon
Length of Visible Light
Length of Day
Tomorrow will be .
, % of the Moon is Illuminated

Today's Extremes

State Highs State Lows

Community

WunderPhotos

Upload Photos

1,891,845 photos uploaded!

WunderBlog® & News

Nearby

Air Quality

  Air Quality AQ Index Pollutant
Not available.

Snow Depth

Station Depth Elevation

Earthquake Activity

City Distance Mag. Time & Date
Minimum magnitude displayed is 2.5.

Coastal Water Temperatures

Place Temperature

Stations

Nearby Weather Stations

Station Location Temp. Windchill Dew Point Humidity Wind Precip. Elev Updated Type
                   

Watches & Warnings

There are currently no watches in effect.